createdAt,value
2018-07-16T00:01:01.932Z,1.82
2018-07-16T00:03:31.530Z,2.15
2018-07-16T00:06:00.911Z,1.85
2018-07-16T00:08:29.991Z,2.25
2018-07-16T00:10:58.956Z,2.02
2018-07-16T00:13:28.302Z,1.85
2018-07-16T00:15:57.288Z,2.12
2018-07-16T00:18:26.270Z,2.12
2018-07-16T00:20:55.291Z,1.60
2018-07-16T00:23:24.327Z,1.92
2018-07-16T00:25:53.163Z,1.60
2018-07-16T00:28:22.440Z,1.82
2018-07-16T00:30:52.485Z,1.60
2018-07-16T00:33:21.146Z,1.62
2018-07-16T00:35:50.199Z,1.95
2018-07-16T00:38:19.031Z,1.77
2018-07-16T00:40:48.762Z,1.77
2018-07-16T00:43:18.300Z,1.98
2018-07-16T00:45:47.437Z,2.55
2018-07-16T00:48:16.482Z,1.95
2018-07-16T00:50:45.591Z,2.52
2018-07-16T00:53:14.754Z,2.70
2018-07-16T00:55:43.609Z,2.10
2018-07-16T00:58:12.823Z,2.50
2018-07-16T01:00:41.626Z,2.50
2018-07-16T01:03:10.502Z,2.75
2018-07-16T01:05:39.994Z,2.15
2018-07-16T01:08:09.238Z,2.80
2018-07-16T01:10:38.437Z,2.72
2018-07-16T01:13:07.399Z,2.50
2018-07-16T01:15:36.111Z,3.00
2018-07-16T01:18:05.140Z,3.25
2018-07-16T01:20:34.106Z,3.20
2018-07-16T01:23:03.560Z,3.15
2018-07-16T01:25:51.266Z,3.15
2018-07-16T01:28:20.141Z,3.35
2018-07-16T01:30:49.005Z,3.75
2018-07-16T01:33:18.060Z,2.90
2018-07-16T01:41:35.107Z,3.37
2018-07-16T01:44:03.792Z,3.25
2018-07-16T01:46:37.463Z,3.17
2018-07-16T01:49:06.579Z,2.70
2018-07-16T01:51:35.758Z,2.47
2018-07-16T01:54:04.763Z,3.17
2018-07-16T01:56:34.047Z,3.30
2018-07-16T01:59:03.178Z,3.22
2018-07-16T02:01:32.467Z,3.22
2018-07-16T02:04:01.768Z,3.62
2018-07-16T02:18:17.705Z,3.65
2018-07-16T02:20:47.867Z,3.47
2018-07-16T02:23:16.534Z,4.80
2018-07-16T02:25:45.801Z,4.40
2018-07-16T02:28:15.071Z,4.05
2018-07-16T02:30:44.771Z,3.80
2018-07-16T02:33:14.269Z,3.58
2018-07-16T02:47:32.203Z,4.35
2018-07-16T02:50:01.392Z,4.83
2018-07-16T02:52:30.379Z,5.35
2018-07-16T02:54:59.542Z,4.28
2018-07-16T02:57:28.475Z,4.97
2018-07-16T02:59:57.774Z,4.50
2018-07-16T03:02:27.280Z,4.50
2018-07-16T03:04:56.271Z,5.47
2018-07-16T03:07:25.793Z,5.42
2018-07-16T03:09:54.777Z,4.42
2018-07-16T03:12:23.634Z,4.95
2018-07-16T03:14:52.839Z,4.75
2018-07-16T03:17:21.887Z,4.92
2018-07-16T03:19:51.077Z,4.83
2018-07-16T03:22:20.065Z,6.60
2018-07-16T03:24:49.385Z,4.85
2018-07-16T03:27:18.291Z,5.22
2018-07-16T03:29:47.358Z,4.65
2018-07-16T03:32:16.747Z,4.80
2018-07-16T03:34:46.559Z,5.10
2018-07-16T03:37:15.346Z,4.95
2018-07-16T03:39:44.437Z,4.78
2018-07-16T03:42:30.052Z,4.55
2018-07-16T03:44:59.321Z,5.30
2018-07-16T03:47:28.512Z,4.72
2018-07-16T03:49:57.507Z,4.92
2018-07-16T03:52:26.571Z,4.75
2018-07-16T03:54:55.620Z,4.05
2018-07-16T03:57:24.970Z,5.40
2018-07-16T03:59:54.106Z,4.42
2018-07-16T04:02:23.123Z,5.47
2018-07-16T04:04:52.103Z,5.15
2018-07-16T04:07:21.366Z,5.30
2018-07-16T04:09:50.926Z,5.87
2018-07-16T04:12:20.101Z,5.45
2018-07-16T04:14:49.773Z,5.95
2018-07-16T04:17:18.594Z,5.40
2018-07-16T04:19:47.365Z,4.85
2018-07-16T04:22:16.840Z,4.67
2018-07-16T04:24:45.661Z,5.83
2018-07-16T04:27:14.459Z,3.75
2018-07-16T04:29:43.592Z,4.22
2018-07-16T04:32:12.619Z,4.45
2018-07-16T04:34:41.536Z,3.65
2018-07-16T04:37:10.655Z,5.03
2018-07-16T04:39:39.739Z,4.37
2018-07-16T04:42:10.164Z,4.58
2018-07-16T04:44:39.564Z,5.08
2018-07-16T04:47:11.488Z,4.20
2018-07-16T04:49:40.608Z,4.15
2018-07-16T04:52:10.333Z,3.65
2018-07-16T04:54:39.855Z,2.70
2018-07-16T04:57:09.057Z,3.00
2018-07-16T04:59:38.452Z,4.37
2018-07-16T05:02:07.428Z,2.75
2018-07-16T05:04:36.474Z,3.37
2018-07-16T05:07:05.747Z,3.70
2018-07-16T05:09:34.812Z,3.17
2018-07-16T05:12:04.001Z,3.72
2018-07-16T05:14:33.299Z,3.17
2018-07-16T05:17:02.521Z,3.25
2018-07-16T05:19:31.693Z,4.15
2018-07-16T05:22:00.940Z,3.27
2018-07-16T05:24:29.979Z,2.83
2018-07-16T05:26:58.987Z,2.17
2018-07-16T05:29:28.090Z,3.05
2018-07-16T05:31:56.927Z,2.85
2018-07-16T05:34:26.292Z,3.25
2018-07-16T05:36:55.321Z,2.75
2018-07-16T05:39:24.380Z,2.60
2018-07-16T05:41:53.253Z,2.83
2018-07-16T05:44:22.570Z,2.30
2018-07-16T05:46:51.569Z,3.12
2018-07-16T05:49:20.694Z,2.75
2018-07-16T05:51:49.660Z,2.00
2018-07-16T05:54:18.477Z,2.05
2018-07-16T05:56:48.090Z,2.77
2018-07-16T05:59:17.182Z,2.70
2018-07-16T06:01:46.248Z,3.20
2018-07-16T06:04:15.947Z,2.15
2018-07-16T06:06:44.843Z,2.62
2018-07-16T06:09:14.030Z,2.40
2018-07-16T06:11:43.001Z,2.40
2018-07-16T06:14:12.028Z,2.98
2018-07-16T06:16:40.761Z,2.17
2018-07-16T06:19:09.710Z,3.37
2018-07-16T06:21:39.105Z,2.50
2018-07-16T06:24:08.538Z,2.08
2018-07-16T06:26:37.235Z,1.60
2018-07-16T06:29:06.247Z,1.80
2018-07-16T06:31:35.083Z,1.77
2018-07-16T06:34:04.062Z,2.60
2018-07-16T06:36:34.400Z,1.32
2018-07-16T06:39:03.880Z,2.50
2018-07-16T06:41:33.031Z,2.60
2018-07-16T06:44:02.345Z,2.22
2018-07-16T06:46:31.812Z,1.70
2018-07-16T06:49:01.325Z,2.10
2018-07-16T06:51:30.756Z,2.27
2018-07-16T06:53:59.819Z,2.00
2018-07-16T06:56:28.714Z,1.85
2018-07-16T06:58:58.363Z,2.27
2018-07-16T07:01:27.495Z,1.87
2018-07-16T07:03:56.412Z,2.35
2018-07-16T07:06:25.461Z,2.85
2018-07-16T07:08:54.608Z,2.55
2018-07-16T07:11:23.396Z,1.90
2018-07-16T07:13:52.635Z,2.08
2018-07-16T07:16:27.448Z,1.98
2018-07-16T07:18:56.525Z,1.55
2018-07-16T07:21:25.964Z,2.12
2018-07-16T07:23:55.439Z,2.17
2018-07-16T07:26:24.750Z,1.22
2018-07-16T07:28:53.531Z,1.80
2018-07-16T07:31:22.304Z,2.25
2018-07-16T07:33:51.363Z,2.30
2018-07-16T07:36:21.343Z,1.52
2018-07-16T07:38:50.448Z,3.52
2018-07-16T07:41:20.241Z,1.40
2018-07-16T07:43:50.030Z,2.22
2018-07-16T07:46:18.870Z,2.58
2018-07-16T07:48:48.161Z,1.60
2018-07-16T07:51:17.008Z,2.15
2018-07-16T07:53:46.082Z,2.65
2018-07-16T07:56:15.314Z,1.80
2018-07-16T07:58:44.306Z,1.70
2018-07-16T08:01:13.734Z,1.62
2018-07-16T08:03:43.055Z,1.45
2018-07-16T08:06:12.033Z,1.50
2018-07-16T08:08:41.088Z,1.80
2018-07-16T08:11:10.141Z,1.42
2018-07-16T08:13:39.222Z,2.20
2018-07-16T08:16:08.391Z,0.80
2018-07-16T08:18:37.561Z,1.10
2018-07-16T08:21:06.984Z,1.17
2018-07-16T08:23:35.879Z,1.50
2018-07-16T08:26:05.159Z,0.90
2018-07-16T08:28:34.175Z,0.75
2018-07-16T08:31:03.271Z,1.00
2018-07-16T08:33:32.461Z,1.00
2018-07-16T08:36:01.460Z,0.90
2018-07-16T08:38:30.663Z,0.70
2018-07-16T08:41:00.085Z,0.90
2018-07-16T08:43:29.083Z,1.10
2018-07-16T08:45:58.438Z,0.90
2018-07-16T08:48:27.255Z,1.00
2018-07-16T08:50:56.127Z,0.62
2018-07-16T08:53:25.242Z,0.60
2018-07-16T08:55:54.647Z,0.72
2018-07-16T08:58:23.553Z,0.90
2018-07-16T09:00:52.778Z,0.88
2018-07-16T09:03:22.823Z,0.90
2018-07-16T09:06:08.037Z,0.80
2018-07-16T09:08:37.682Z,0.75
2018-07-16T09:11:06.949Z,0.70
2018-07-16T09:13:36.165Z,0.60
2018-07-16T09:16:05.199Z,0.80
2018-07-16T09:18:33.934Z,1.42
2018-07-16T09:21:02.946Z,0.85
2018-07-16T09:23:32.091Z,0.70
2018-07-16T09:26:01.223Z,0.80
2018-07-16T09:28:30.422Z,0.80
2018-07-16T09:30:59.705Z,0.80
2018-07-16T09:33:28.605Z,0.82
2018-07-16T09:35:57.608Z,0.72
2018-07-16T09:38:26.463Z,0.80
2018-07-16T09:40:55.601Z,0.60
2018-07-16T09:43:24.476Z,0.93
2018-07-16T09:45:53.301Z,0.80
2018-07-16T09:48:22.563Z,0.90
2018-07-16T09:50:51.500Z,0.70
2018-07-16T09:53:20.170Z,0.70
2018-07-16T09:55:49.053Z,0.90
2018-07-16T09:58:18.331Z,0.75
2018-07-16T10:01:55.109Z,0.60
2018-07-16T10:04:23.766Z,0.70
2018-07-16T10:06:52.715Z,0.60
2018-07-16T10:09:22.123Z,0.65
2018-07-16T10:11:51.098Z,0.60
2018-07-16T10:14:20.040Z,0.60
2018-07-16T10:16:49.170Z,0.60
2018-07-16T10:19:18.106Z,0.70
2018-07-16T10:21:47.184Z,0.50
2018-07-16T10:24:16.251Z,0.55
2018-07-16T10:26:45.190Z,0.60
2018-07-16T10:29:14.380Z,0.55
2018-07-16T10:31:43.801Z,0.50
2018-07-16T10:34:13.319Z,0.70
2018-07-16T10:36:42.081Z,0.60
2018-07-16T10:39:11.237Z,0.70
2018-07-16T10:41:40.281Z,0.62
2018-07-16T10:44:09.277Z,0.98
2018-07-16T10:46:38.478Z,0.55
2018-07-16T10:49:08.060Z,0.60
2018-07-16T10:51:36.847Z,0.72
2018-07-16T10:54:05.880Z,0.70
2018-07-16T10:56:34.824Z,0.75
2018-07-16T10:59:03.711Z,1.02
2018-07-16T11:01:32.551Z,1.05
2018-07-16T11:04:01.709Z,1.37
2018-07-16T11:06:30.904Z,0.70
2018-07-16T11:09:00.067Z,0.90
2018-07-16T11:11:28.906Z,1.47
2018-07-16T11:13:57.895Z,0.80
2018-07-16T11:16:27.117Z,0.98
2018-07-16T11:18:56.056Z,1.00
2018-07-16T11:21:24.880Z,1.30
2018-07-16T11:23:53.899Z,0.70
2018-07-16T11:26:22.957Z,0.80
2018-07-16T11:28:52.044Z,1.32
2018-07-16T11:31:21.156Z,0.98
2018-07-16T11:33:50.257Z,1.35
2018-07-16T11:36:19.277Z,1.00
2018-07-16T11:38:48.593Z,1.10
2018-07-16T11:41:18.173Z,0.80
2018-07-16T11:43:47.177Z,1.17
2018-07-16T11:46:16.096Z,1.37
2018-07-16T11:48:45.041Z,1.40
2018-07-16T11:51:14.032Z,3.62
2018-07-16T11:53:43.276Z,1.40
2018-07-16T11:56:12.182Z,1.30
2018-07-16T11:58:40.988Z,1.55
2018-07-16T12:01:09.823Z,1.20
2018-07-16T12:03:38.771Z,1.40
2018-07-16T12:06:13.402Z,1.15
2018-07-16T12:08:42.398Z,0.95
2018-07-16T12:11:11.282Z,0.95
2018-07-16T12:13:40.168Z,1.25
2018-07-16T12:16:09.135Z,1.05
2018-07-16T12:18:38.145Z,1.20
2018-07-16T12:21:07.473Z,1.10
2018-07-16T12:23:36.246Z,1.67
2018-07-16T12:26:05.974Z,1.30
2018-07-16T12:28:34.851Z,1.20
2018-07-16T12:31:03.547Z,1.65
2018-07-16T12:33:32.521Z,1.47
2018-07-16T12:36:02.350Z,1.20
2018-07-16T12:38:31.524Z,1.42
2018-07-16T12:41:00.413Z,1.00
2018-07-16T12:43:29.551Z,0.95
2018-07-16T12:45:58.620Z,0.70
2018-07-16T12:48:27.921Z,1.32
2018-07-16T12:50:57.030Z,0.95
2018-07-16T12:53:25.990Z,1.32
2018-07-16T12:55:55.100Z,1.05
2018-07-16T12:58:24.311Z,1.20
2018-07-16T13:00:52.979Z,1.40
2018-07-16T13:03:21.763Z,1.30
2018-07-16T13:05:51.409Z,1.55
2018-07-16T13:08:20.183Z,1.52
2018-07-16T13:10:49.242Z,1.62
2018-07-16T13:13:18.070Z,1.72
2018-07-16T13:15:47.713Z,1.65
2018-07-16T13:18:16.627Z,1.55
2018-07-16T13:20:45.287Z,1.87
2018-07-16T13:23:14.348Z,1.70
2018-07-16T13:25:43.433Z,1.30
2018-07-16T13:28:12.474Z,1.20
2018-07-16T13:30:41.424Z,1.32
2018-07-16T13:33:10.427Z,1.25
2018-07-16T13:35:39.644Z,1.65
2018-07-16T13:38:08.743Z,1.82
2018-07-16T13:40:37.789Z,2.52
2018-07-16T13:43:06.663Z,1.47
2018-07-16T13:45:35.314Z,1.45
2018-07-16T13:48:04.315Z,1.77
2018-07-16T13:50:33.743Z,1.30
2018-07-16T13:53:03.313Z,1.02
2018-07-16T13:55:32.243Z,1.50
2018-07-16T13:58:01.429Z,1.27
2018-07-16T14:00:30.608Z,1.27
2018-07-16T14:02:59.688Z,0.88
2018-07-16T14:05:28.608Z,1.35
2018-07-16T14:07:57.756Z,1.50
2018-07-16T14:10:26.620Z,1.12
2018-07-16T14:12:55.622Z,1.32
2018-07-16T14:15:24.494Z,1.32
2018-07-16T14:17:53.772Z,1.80
2018-07-16T14:20:23.020Z,1.42
2018-07-16T14:22:51.838Z,1.27
2018-07-16T14:25:20.963Z,1.07
2018-07-16T14:27:50.028Z,2.02
2018-07-16T14:30:18.869Z,1.10
2018-07-16T14:32:47.975Z,1.45
2018-07-16T14:35:17.006Z,2.00
2018-07-16T14:37:45.864Z,1.20
2018-07-16T14:40:14.975Z,1.32
2018-07-16T14:42:44.154Z,1.32
2018-07-16T14:45:13.246Z,1.37
2018-07-16T14:47:42.407Z,1.15
2018-07-16T14:50:11.477Z,1.52
2018-07-16T14:52:40.534Z,1.65
2018-07-16T14:55:09.504Z,1.00
2018-07-16T14:57:39.178Z,1.20
2018-07-16T15:00:08.879Z,1.00
2018-07-16T15:02:37.757Z,0.90
2018-07-16T15:05:06.970Z,0.95
2018-07-16T15:07:35.870Z,2.08
2018-07-16T15:10:04.831Z,1.70
2018-07-16T15:12:34.110Z,1.10
2018-07-16T15:15:03.768Z,1.32
2018-07-16T15:17:33.301Z,1.00
2018-07-16T15:20:02.370Z,1.40
2018-07-16T15:22:31.779Z,0.90
2018-07-16T15:25:00.580Z,1.10
2018-07-16T15:27:29.871Z,1.12
2018-07-16T15:29:58.882Z,0.85
2018-07-16T15:32:27.866Z,1.90
2018-07-16T15:34:57.197Z,1.00
2018-07-16T15:37:27.090Z,1.30
2018-07-16T15:39:56.259Z,1.07
2018-07-16T15:42:25.641Z,1.47
2018-07-16T15:44:54.674Z,1.30
2018-07-16T15:47:23.667Z,1.17
2018-07-16T15:49:52.423Z,1.00
2018-07-16T15:52:21.952Z,0.98
2018-07-16T15:54:50.748Z,1.20
2018-07-16T15:57:20.029Z,1.40
2018-07-16T15:59:48.823Z,1.20
2018-07-16T16:02:17.749Z,1.57
2018-07-16T16:04:47.804Z,1.47
2018-07-16T16:07:16.751Z,1.40
2018-07-16T16:09:46.505Z,1.35
2018-07-16T16:12:15.569Z,2.15
2018-07-16T16:14:44.564Z,1.32
2018-07-16T16:17:14.906Z,1.00
2018-07-16T16:19:44.120Z,0.90
2018-07-16T16:22:12.797Z,1.40
2018-07-16T16:24:42.290Z,1.27
2018-07-16T16:27:11.227Z,1.27
2018-07-16T16:29:40.782Z,1.20
2018-07-16T16:32:10.090Z,1.35
2018-07-16T16:34:38.995Z,1.50
2018-07-16T16:37:08.070Z,1.60
2018-07-16T16:39:37.378Z,1.70
2018-07-16T16:42:07.005Z,1.82
2018-07-16T16:44:36.092Z,1.87
2018-07-16T16:47:05.477Z,1.27
2018-07-16T16:49:34.810Z,1.15
2018-07-16T16:52:03.897Z,1.72
2018-07-16T16:54:34.184Z,1.60
2018-07-16T16:57:03.145Z,1.70
2018-07-16T16:59:34.372Z,2.20
2018-07-16T17:02:04.243Z,2.35
2018-07-16T17:04:33.347Z,2.00
2018-07-16T17:07:03.324Z,2.30
2018-07-16T17:09:34.772Z,2.02
2018-07-16T17:12:05.476Z,1.98
2018-07-16T17:14:37.826Z,2.05
2018-07-16T17:17:07.018Z,2.42
2018-07-16T17:19:36.683Z,2.60
2018-07-16T17:22:08.183Z,2.40
2018-07-16T17:24:38.331Z,2.40
2018-07-16T17:27:07.302Z,3.85
2018-07-16T17:29:38.911Z,3.67
2018-07-16T17:32:11.204Z,4.30
2018-07-16T17:34:40.540Z,4.20
2018-07-16T17:37:10.126Z,3.72
2018-07-16T17:39:39.685Z,3.62
2018-07-16T17:42:09.295Z,3.90
2018-07-16T17:44:38.597Z,3.30
2018-07-16T17:47:07.698Z,4.10
2018-07-16T17:49:37.203Z,5.30
2018-07-16T17:52:07.222Z,13.13
2018-07-16T17:54:38.583Z,16.73
2018-07-16T17:57:07.575Z,17.32
2018-07-16T17:59:36.982Z,18.52
2018-07-16T18:02:06.519Z,17.25
2018-07-16T18:04:35.781Z,17.20
2018-07-16T18:07:04.561Z,7.78
2018-07-16T18:09:33.508Z,7.62
2018-07-16T18:12:02.711Z,7.60
2018-07-16T18:14:31.973Z,5.45
2018-07-16T18:17:01.493Z,4.35
2018-07-16T18:19:30.771Z,4.58
2018-07-16T18:21:59.770Z,4.15
2018-07-16T18:24:29.374Z,3.70
2018-07-16T18:26:58.516Z,4.50
2018-07-16T18:29:27.361Z,4.05
2018-07-16T18:31:56.467Z,4.15
2018-07-16T18:34:25.356Z,3.90
2018-07-16T18:36:54.752Z,3.75
2018-07-16T18:39:24.287Z,4.75
2018-07-16T18:41:53.582Z,3.72
2018-07-16T18:44:22.667Z,4.03
2018-07-16T18:46:52.178Z,3.52
2018-07-16T18:49:22.017Z,3.87
2018-07-16T18:51:50.946Z,4.00
2018-07-16T18:54:20.432Z,3.87
2018-07-16T18:56:49.466Z,4.50
2018-07-16T18:59:18.365Z,3.75
2018-07-16T19:01:47.510Z,3.62
2018-07-16T19:04:16.875Z,3.95
2018-07-16T19:06:46.546Z,3.95
2018-07-16T19:09:16.187Z,3.67
2018-07-16T19:11:45.285Z,3.98
2018-07-16T19:14:15.008Z,3.70
2018-07-16T19:16:44.051Z,4.35
2018-07-16T19:19:12.800Z,3.60
2018-07-16T19:21:42.060Z,3.90
2018-07-16T19:24:11.891Z,4.53
2018-07-16T19:26:41.056Z,4.87
2018-07-16T19:29:10.729Z,5.60
2018-07-16T19:31:39.722Z,4.50
2018-07-16T19:34:08.759Z,4.58
2018-07-16T19:36:38.413Z,4.62
2018-07-16T19:39:09.374Z,4.30
2018-07-16T19:41:38.444Z,4.62
2018-07-16T19:44:08.139Z,5.40
2018-07-16T19:46:37.483Z,4.78
2018-07-16T19:49:07.219Z,5.17
2018-07-16T19:51:36.155Z,4.70
2018-07-16T19:54:06.139Z,3.83
2018-07-16T19:56:35.572Z,3.52
2018-07-16T19:59:04.375Z,3.40
2018-07-16T20:01:33.409Z,5.37
2018-07-16T20:04:02.276Z,5.05
2018-07-16T20:06:31.951Z,5.25
2018-07-16T20:09:01.793Z,5.92
2018-07-16T20:11:30.788Z,6.50
2018-07-16T20:14:02.061Z,6.53
2018-07-16T20:16:42.102Z,7.15
2018-07-16T20:19:11.593Z,9.05
2018-07-16T20:21:40.666Z,11.43
2018-07-16T20:24:10.552Z,13.95
2018-07-16T20:26:39.390Z,12.75
2018-07-16T20:29:08.028Z,10.85
2018-07-16T20:31:37.903Z,9.10
2018-07-16T20:34:06.688Z,6.05
2018-07-16T20:36:35.477Z,6.67
2018-07-16T20:39:06.849Z,6.53
2018-07-16T20:41:37.059Z,6.30
2018-07-16T20:44:06.154Z,6.25
2018-07-16T20:46:35.248Z,5.55
2018-07-16T20:49:04.306Z,6.83
2018-07-16T20:51:33.434Z,6.40
2018-07-16T20:54:02.648Z,5.33
2018-07-16T20:56:31.728Z,5.47
2018-07-16T20:59:00.625Z,4.45
2018-07-16T21:01:29.742Z,4.40
2018-07-16T21:03:58.635Z,5.95
2018-07-16T21:06:27.508Z,5.50
2018-07-16T21:08:56.827Z,4.72
2018-07-16T21:11:26.971Z,4.92
2018-07-16T21:13:55.892Z,4.95
2018-07-16T21:16:25.549Z,4.70
2018-07-16T21:18:54.664Z,4.33
2018-07-16T21:21:23.706Z,4.90
2018-07-16T21:23:52.707Z,5.40
2018-07-16T21:26:22.018Z,5.87
2018-07-16T21:28:51.529Z,5.53
2018-07-16T21:31:20.403Z,6.05
2018-07-16T21:33:49.526Z,6.42
2018-07-16T21:36:18.723Z,6.47
2018-07-16T21:38:47.807Z,6.35
2018-07-16T21:41:16.954Z,6.42
2018-07-16T21:43:46.359Z,5.85
2018-07-16T21:46:15.279Z,6.50
2018-07-16T21:48:44.235Z,6.15
2018-07-16T21:51:13.888Z,6.05
2018-07-16T21:53:43.445Z,6.80
2018-07-16T21:56:12.656Z,7.10
2018-07-16T21:58:41.602Z,6.42
2018-07-16T22:01:10.567Z,7.28
2018-07-16T22:03:40.116Z,7.87
2018-07-16T22:06:09.299Z,7.92
2018-07-16T22:08:38.194Z,8.30
2018-07-16T22:11:07.102Z,7.83
2018-07-16T22:13:35.975Z,7.08
2018-07-16T22:16:05.203Z,7.83
2018-07-16T22:18:34.607Z,6.80
2018-07-16T22:21:03.734Z,7.22
2018-07-16T22:23:33.197Z,7.72
2018-07-16T22:26:02.363Z,7.20
2018-07-16T22:28:31.134Z,7.42
2018-07-16T22:31:00.115Z,7.10
2018-07-16T22:33:29.206Z,7.53
2018-07-16T22:35:58.374Z,7.62
2018-07-16T22:38:27.464Z,7.97
2018-07-16T22:40:56.362Z,7.17
2018-07-16T22:43:25.748Z,7.62
2018-07-16T22:45:54.865Z,8.63
2018-07-16T22:48:24.258Z,8.93
2018-07-16T22:50:53.177Z,7.87
2018-07-16T22:53:22.343Z,8.00
2018-07-16T22:55:51.466Z,8.60
2018-07-16T22:58:20.761Z,8.55
2018-07-16T23:00:49.611Z,8.20
2018-07-16T23:03:18.759Z,7.92
2018-07-16T23:05:47.837Z,8.75
2018-07-16T23:08:17.847Z,8.08
2018-07-16T23:10:47.494Z,8.35
2018-07-16T23:13:16.341Z,8.25
2018-07-16T23:15:45.139Z,9.15
2018-07-16T23:18:14.342Z,9.13
2018-07-16T23:20:43.237Z,9.03
2018-07-16T23:23:12.658Z,9.43
2018-07-16T23:25:41.727Z,9.30
2018-07-16T23:28:10.839Z,10.35
2018-07-16T23:30:39.938Z,10.38
2018-07-16T23:33:09.683Z,9.75
2018-07-16T23:35:38.546Z,10.90
2018-07-16T23:38:07.719Z,10.48
2018-07-16T23:40:36.445Z,10.13
2018-07-16T23:43:05.313Z,9.53
2018-07-16T23:45:34.050Z,9.78
2018-07-16T23:48:03.152Z,9.85
2018-07-16T23:50:32.411Z,10.48
2018-07-16T23:53:02.207Z,9.30
2018-07-16T23:55:31.907Z,9.05
2018-07-16T23:58:00.702Z,7.92
